sensor_id;sensor_type;location;lat;lon;timestamp;P1;durP1;ratioP1;P2;durP2;ratioP2
62673;SDS011;62269;47.594;17.638;2023-06-19T00:00:49;11.50;;;10.18;;
62673;SDS011;62269;47.594;17.638;2023-06-19T00:01:46;12.07;;;8.95;;
62673;SDS011;62269;47.594;17.638;2023-06-19T00:02:43;10.23;;;9.20;;
62673;SDS011;62269;47.594;17.638;2023-06-19T00:03:40;11.05;;;9.95;;
62673;SDS011;62269;47.594;17.638;2023-06-19T00:04:37;11.23;;;9.80;;
62673;SDS011;62269;47.594;17.638;2023-06-19T00:05:34;13.15;;;9.82;;
62673;SDS011;62269;47.594;17.638;2023-06-19T00:06:31;11.00;;;9.18;;
62673;SDS011;62269;47.594;17.638;2023-06-19T00:07:28;10.20;;;9.23;;
62673;SDS011;62269;47.594;17.638;2023-06-19T00:08:25;10.38;;;9.25;;
62673;SDS011;62269;47.594;17.638;2023-06-19T00:09:22;10.90;;;9.45;;
62673;SDS011;62269;47.594;17.638;2023-06-19T00:10:19;14.00;;;11.02;;
62673;SDS011;62269;47.594;17.638;2023-06-19T00:11:16;10.45;;;9.40;;
62673;SDS011;62269;47.594;17.638;2023-06-19T00:12:14;10.35;;;9.25;;
62673;SDS011;62269;47.594;17.638;2023-06-19T00:13:11;10.93;;;9.82;;
62673;SDS011;62269;47.594;17.638;2023-06-19T00:14:08;11.48;;;10.15;;
62673;SDS011;62269;47.594;17.638;2023-06-19T00:15:05;11.05;;;9.95;;
62673;SDS011;62269;47.594;17.638;2023-06-19T00:16:04;10.43;;;9.27;;
62673;SDS011;62269;47.594;17.638;2023-06-19T00:17:01;10.73;;;9.27;;
62673;SDS011;62269;47.594;17.638;2023-06-19T00:17:58;10.60;;;9.60;;
62673;SDS011;62269;47.594;17.638;2023-06-19T00:18:56;10.57;;;9.48;;
62673;SDS011;62269;47.594;17.638;2023-06-19T00:19:53;11.00;;;9.90;;
62673;SDS011;62269;47.594;17.638;2023-06-19T00:20:50;10.27;;;9.27;;
62673;SDS011;62269;47.594;17.638;2023-06-19T00:21:47;11.48;;;10.27;;
62673;SDS011;62269;47.594;17.638;2023-06-19T00:22:44;11.12;;;9.15;;
62673;SDS011;62269;47.594;17.638;2023-06-19T00:23:41;10.77;;;9.70;;
62673;SDS011;62269;47.594;17.638;2023-06-19T00:24:38;10.43;;;9.15;;
62673;SDS011;62269;47.594;17.638;2023-06-19T00:25:35;10.73;;;9.63;;
62673;SDS011;62269;47.594;17.638;2023-06-19T00:26:32;10.10;;;9.20;;
62673;SDS011;62269;47.594;17.638;2023-06-19T00:27:29;10.43;;;9.10;;
62673;SDS011;62269;47.594;17.638;2023-06-19T00:28:27;11.30;;;10.15;;
62673;SDS011;62269;47.594;17.638;2023-06-19T00:29:24;11.07;;;9.60;;
62673;SDS011;62269;47.594;17.638;2023-06-19T00:30:24;10.48;;;9.38;;
62673;SDS011;62269;47.594;17.638;2023-06-19T00:31:21;10.68;;;9.57;;
62673;SDS011;62269;47.594;17.638;2023-06-19T00:32:18;10.50;;;9.40;;
62673;SDS011;62269;47.594;17.638;2023-06-19T00:33:16;10.95;;;9.50;;
62673;SDS011;62269;47.594;17.638;2023-06-19T00:34:13;11.35;;;9.68;;
62673;SDS011;62269;47.594;17.638;2023-06-19T00:35:10;10.88;;;9.73;;
62673;SDS011;62269;47.594;17.638;2023-06-19T00:36:10;10.65;;;9.55;;
62673;SDS011;62269;47.594;17.638;2023-06-19T00:37:09;10.27;;;9.27;;
62673;SDS011;62269;47.594;17.638;2023-06-19T00:38:07;12.13;;;10.07;;
62673;SDS011;62269;47.594;17.638;2023-06-19T00:39:04;10.95;;;9.80;;
62673;SDS011;62269;47.594;17.638;2023-06-19T00:40:01;10.82;;;8.70;;
62673;SDS011;62269;47.594;17.638;2023-06-19T00:40:58;12.32;;;9.63;;
62673;SDS011;62269;47.594;17.638;2023-06-19T00:41:56;9.65;;;8.75;;
62673;SDS011;62269;47.594;17.638;2023-06-19T00:42:53;10.90;;;9.80;;
62673;SDS011;62269;47.594;17.638;2023-06-19T00:43:50;11.63;;;10.18;;
62673;SDS011;62269;47.594;17.638;2023-06-19T00:44:48;10.77;;;9.68;;
62673;SDS011;62269;47.594;17.638;2023-06-19T00:45:45;11.70;;;9.50;;
62673;SDS011;62269;47.594;17.638;2023-06-19T00:46:42;10.48;;;9.45;;
62673;SDS011;62269;47.594;17.638;2023-06-19T00:47:39;11.45;;;10.07;;
62673;SDS011;62269;47.594;17.638;2023-06-19T00:48:37;10.70;;;9.60;;
62673;SDS011;62269;47.594;17.638;2023-06-19T00:49:34;10.68;;;9.68;;
62673;SDS011;62269;47.594;17.638;2023-06-19T00:50:31;10.38;;;9.30;;
62673;SDS011;62269;47.594;17.638;2023-06-19T00:51:28;10.85;;;9.65;;
62673;SDS011;62269;47.594;17.638;2023-06-19T00:52:25;11.02;;;9.93;;
62673;SDS011;62269;47.594;17.638;2023-06-19T00:53:22;10.68;;;9.68;;
62673;SDS011;62269;47.594;17.638;2023-06-19T00:54:20;10.93;;;9.82;;
62673;SDS011;62269;47.594;17.638;2023-06-19T00:55:18;10.13;;;9.13;;
62673;SDS011;62269;47.594;17.638;2023-06-19T00:56:15;11.60;;;9.80;;
62673;SDS011;62269;47.594;17.638;2023-06-19T00:57:14;10.70;;;9.70;;
62673;SDS011;62269;47.594;17.638;2023-06-19T00:58:11;10.32;;;9.32;;
62673;SDS011;62269;47.594;17.638;2023-06-19T00:59:11;11.40;;;9.15;;
62673;SDS011;62269;47.594;17.638;2023-06-19T01:00:12;12.13;;;9.88;;
62673;SDS011;62269;47.594;17.638;2023-06-19T01:01:09;10.27;;;9.25;;
62673;SDS011;62269;47.594;17.638;2023-06-19T01:02:06;11.27;;;10.07;;
62673;SDS011;62269;47.594;17.638;2023-06-19T01:03:04;10.55;;;9.50;;
62673;SDS011;62269;47.594;17.638;2023-06-19T01:04:01;12.23;;;10.00;;
62673;SDS011;62269;47.594;17.638;2023-06-19T01:04:59;10.77;;;9.70;;
62673;SDS011;62269;47.594;17.638;2023-06-19T01:05:56;10.82;;;9.80;;
62673;SDS011;62269;47.594;17.638;2023-06-19T01:06:54;11.80;;;9.82;;
62673;SDS011;62269;47.594;17.638;2023-06-19T01:09:02;10.15;;;9.15;;
62673;SDS011;62269;47.594;17.638;2023-06-19T01:10:02;10.75;;;9.63;;
62673;SDS011;62269;47.594;17.638;2023-06-19T01:11:01;10.40;;;9.40;;
62673;SDS011;62269;47.594;17.638;2023-06-19T01:12:20;11.45;;;10.25;;
62673;SDS011;62269;47.594;17.638;2023-06-19T01:13:22;10.88;;;9.77;;
62673;SDS011;62269;47.594;17.638;2023-06-19T01:14:45;12.23;;;10.27;;
62673;SDS011;62269;47.594;17.638;2023-06-19T01:15:50;11.18;;;9.95;;
62673;SDS011;62269;47.594;17.638;2023-06-19T01:16:47;10.63;;;9.45;;
62673;SDS011;62269;47.594;17.638;2023-06-19T01:17:45;11.12;;;9.93;;
62673;SDS011;62269;47.594;17.638;2023-06-19T01:18:44;10.98;;;9.52;;
62673;SDS011;62269;47.594;17.638;2023-06-19T01:19:41;11.63;;;10.43;;
62673;SDS011;62269;47.594;17.638;2023-06-19T01:20:38;10.75;;;9.65;;
62673;SDS011;62269;47.594;17.638;2023-06-19T01:21:35;11.18;;;9.63;;
62673;SDS011;62269;47.594;17.638;2023-06-19T01:22:33;12.82;;;9.63;;
62673;SDS011;62269;47.594;17.638;2023-06-19T01:23:30;11.02;;;9.93;;
62673;SDS011;62269;47.594;17.638;2023-06-19T01:24:27;11.73;;;10.05;;
62673;SDS011;62269;47.594;17.638;2023-06-19T01:25:24;10.45;;;9.35;;
62673;SDS011;62269;47.594;17.638;2023-06-19T01:26:22;10.52;;;9.48;;
62673;SDS011;62269;47.594;17.638;2023-06-19T01:27:23;12.15;;;10.10;;
62673;SDS011;62269;47.594;17.638;2023-06-19T01:28:22;11.75;;;10.20;;
62673;SDS011;62269;47.594;17.638;2023-06-19T01:29:19;11.77;;;10.57;;
62673;SDS011;62269;47.594;17.638;2023-06-19T01:30:16;11.12;;;9.65;;
62673;SDS011;62269;47.594;17.638;2023-06-19T01:31:15;10.80;;;9.70;;
62673;SDS011;62269;47.594;17.638;2023-06-19T01:32:19;11.27;;;10.07;;
62673;SDS011;62269;47.594;17.638;2023-06-19T01:33:20;10.98;;;9.85;;
62673;SDS011;62269;47.594;17.638;2023-06-19T01:34:22;11.40;;;10.30;;
62673;SDS011;62269;47.594;17.638;2023-06-19T01:35:23;13.10;;;10.30;;
62673;SDS011;62269;47.594;17.638;2023-06-19T01:36:22;12.05;;;10.38;;
62673;SDS011;62269;47.594;17.638;2023-06-19T01:37:20;11.80;;;10.55;;
62673;SDS011;62269;47.594;17.638;2023-06-19T01:38:19;11.93;;;9.98;;
62673;SDS011;62269;47.594;17.638;2023-06-19T01:39:18;11.93;;;10.73;;
62673;SDS011;62269;47.594;17.638;2023-06-19T01:40:15;10.88;;;9.68;;
62673;SDS011;62269;47.594;17.638;2023-06-19T01:41:13;11.07;;;9.98;;
62673;SDS011;62269;47.594;17.638;2023-06-19T01:42:11;10.75;;;9.68;;
62673;SDS011;62269;47.594;17.638;2023-06-19T01:43:09;10.70;;;9.65;;
62673;SDS011;62269;47.594;17.638;2023-06-19T01:44:08;11.20;;;9.95;;
62673;SDS011;62269;47.594;17.638;2023-06-19T01:45:05;11.68;;;10.02;;
62673;SDS011;62269;47.594;17.638;2023-06-19T01:46:03;11.25;;;9.82;;
62673;SDS011;62269;47.594;17.638;2023-06-19T01:47:06;10.93;;;9.85;;
62673;SDS011;62269;47.594;17.638;2023-06-19T01:48:04;11.32;;;10.23;;
62673;SDS011;62269;47.594;17.638;2023-06-19T01:49:01;10.65;;;9.63;;
62673;SDS011;62269;47.594;17.638;2023-06-19T01:50:03;10.95;;;9.77;;
62673;SDS011;62269;47.594;17.638;2023-06-19T01:51:00;11.00;;;9.82;;
62673;SDS011;62269;47.594;17.638;2023-06-19T01:51:59;10.98;;;9.88;;
62673;SDS011;62269;47.594;17.638;2023-06-19T01:52:57;11.50;;;10.35;;
62673;SDS011;62269;47.594;17.638;2023-06-19T01:53:54;11.48;;;10.15;;
62673;SDS011;62269;47.594;17.638;2023-06-19T01:54:51;13.57;;;10.40;;
62673;SDS011;62269;47.594;17.638;2023-06-19T01:55:48;13.70;;;9.80;;
62673;SDS011;62269;47.594;17.638;2023-06-19T01:56:48;9.93;;;9.00;;
62673;SDS011;62269;47.594;17.638;2023-06-19T01:57:46;11.73;;;10.52;;
62673;SDS011;62269;47.594;17.638;2023-06-19T01:58:43;10.93;;;9.82;;
62673;SDS011;62269;47.594;17.638;2023-06-19T01:59:40;11.90;;;10.02;;
62673;SDS011;62269;47.594;17.638;2023-06-19T02:00:37;12.68;;;10.20;;
62673;SDS011;62269;47.594;17.638;2023-06-19T02:01:34;14.25;;;9.70;;
62673;SDS011;62269;47.594;17.638;2023-06-19T02:02:32;11.38;;;10.27;;
62673;SDS011;62269;47.594;17.638;2023-06-19T02:03:29;11.12;;;10.00;;
62673;SDS011;62269;47.594;17.638;2023-06-19T02:04:26;11.30;;;10.20;;
62673;SDS011;62269;47.594;17.638;2023-06-19T02:05:23;11.82;;;10.63;;
62673;SDS011;62269;47.594;17.638;2023-06-19T02:06:20;10.82;;;9.43;;
62673;SDS011;62269;47.594;17.638;2023-06-19T02:07:17;12.98;;;9.68;;
62673;SDS011;62269;47.594;17.638;2023-06-19T02:08:14;10.75;;;9.65;;
62673;SDS011;62269;47.594;17.638;2023-06-19T02:09:11;10.77;;;9.77;;
62673;SDS011;62269;47.594;17.638;2023-06-19T02:10:08;10.90;;;9.80;;
62673;SDS011;62269;47.594;17.638;2023-06-19T02:11:06;13.62;;;10.55;;
62673;SDS011;62269;47.594;17.638;2023-06-19T02:12:03;11.82;;;10.65;;
62673;SDS011;62269;47.594;17.638;2023-06-19T02:13:00;11.57;;;9.95;;
62673;SDS011;62269;47.594;17.638;2023-06-19T02:13:57;10.45;;;9.45;;
62673;SDS011;62269;47.594;17.638;2023-06-19T02:14:54;10.90;;;9.88;;
62673;SDS011;62269;47.594;17.638;2023-06-19T02:15:51;11.20;;;10.10;;
62673;SDS011;62269;47.594;17.638;2023-06-19T02:16:48;11.32;;;10.05;;
62673;SDS011;62269;47.594;17.638;2023-06-19T02:17:45;11.05;;;9.95;;
62673;SDS011;62269;47.594;17.638;2023-06-19T02:18:42;11.02;;;9.93;;
62673;SDS011;62269;47.594;17.638;2023-06-19T02:19:39;11.73;;;10.52;;
62673;SDS011;62269;47.594;17.638;2023-06-19T02:20:36;11.30;;;10.00;;
62673;SDS011;62269;47.594;17.638;2023-06-19T02:21:33;10.50;;;9.48;;
62673;SDS011;62269;47.594;17.638;2023-06-19T02:22:30;12.80;;;10.15;;
62673;SDS011;62269;47.594;17.638;2023-06-19T02:23:27;13.20;;;9.77;;
62673;SDS011;62269;47.594;17.638;2023-06-19T02:24:24;11.57;;;9.77;;
62673;SDS011;62269;47.594;17.638;2023-06-19T02:25:21;11.85;;;9.88;;
62673;SDS011;62269;47.594;17.638;2023-06-19T02:26:18;11.00;;;9.90;;
62673;SDS011;62269;47.594;17.638;2023-06-19T02:27:15;10.68;;;9.18;;
62673;SDS011;62269;47.594;17.638;2023-06-19T02:28:12;10.90;;;9.80;;
62673;SDS011;62269;47.594;17.638;2023-06-19T02:29:10;13.07;;;10.25;;
62673;SDS011;62269;47.594;17.638;2023-06-19T02:30:07;11.57;;;9.90;;
62673;SDS011;62269;47.594;17.638;2023-06-19T02:31:04;10.70;;;9.63;;
62673;SDS011;62269;47.594;17.638;2023-06-19T02:32:01;11.00;;;9.90;;
62673;SDS011;62269;47.594;17.638;2023-06-19T02:33:00;12.40;;;10.07;;
62673;SDS011;62269;47.594;17.638;2023-06-19T02:33:57;11.23;;;9.70;;
62673;SDS011;62269;47.594;17.638;2023-06-19T02:34:54;12.55;;;10.23;;
62673;SDS011;62269;47.594;17.638;2023-06-19T02:35:51;13.68;;;10.13;;
62673;SDS011;62269;47.594;17.638;2023-06-19T02:36:48;11.50;;;9.82;;
62673;SDS011;62269;47.594;17.638;2023-06-19T02:37:45;10.80;;;9.70;;
62673;SDS011;62269;47.594;17.638;2023-06-19T02:38:42;11.02;;;9.48;;
62673;SDS011;62269;47.594;17.638;2023-06-19T02:39:40;11.20;;;10.07;;
62673;SDS011;62269;47.594;17.638;2023-06-19T02:40:37;10.55;;;9.55;;
62673;SDS011;62269;47.594;17.638;2023-06-19T02:41:34;10.45;;;9.45;;
62673;SDS011;62269;47.594;17.638;2023-06-19T02:42:32;12.25;;;10.43;;
62673;SDS011;62269;47.594;17.638;2023-06-19T02:43:29;12.57;;;10.57;;
62673;SDS011;62269;47.594;17.638;2023-06-19T02:44:26;10.85;;;9.73;;
62673;SDS011;62269;47.594;17.638;2023-06-19T02:45:23;10.50;;;9.50;;
62673;SDS011;62269;47.594;17.638;2023-06-19T02:46:20;12.15;;;9.80;;
62673;SDS011;62269;47.594;17.638;2023-06-19T02:47:17;10.52;;;9.43;;
62673;SDS011;62269;47.594;17.638;2023-06-19T02:48:14;11.98;;;9.77;;
62673;SDS011;62269;47.594;17.638;2023-06-19T02:49:11;11.70;;;10.15;;
62673;SDS011;62269;47.594;17.638;2023-06-19T02:50:08;10.57;;;9.48;;
62673;SDS011;62269;47.594;17.638;2023-06-19T02:51:05;10.68;;;9.65;;
62673;SDS011;62269;47.594;17.638;2023-06-19T02:52:03;10.25;;;9.25;;
62673;SDS011;62269;47.594;17.638;2023-06-19T02:53:01;10.73;;;9.55;;
62673;SDS011;62269;47.594;17.638;2023-06-19T02:53:58;10.52;;;9.43;;
62673;SDS011;62269;47.594;17.638;2023-06-19T02:54:55;11.60;;;10.10;;
62673;SDS011;62269;47.594;17.638;2023-06-19T02:55:52;9.80;;;8.82;;
62673;SDS011;62269;47.594;17.638;2023-06-19T02:56:49;10.80;;;9.70;;
62673;SDS011;62269;47.594;17.638;2023-06-19T02:57:46;11.68;;;9.57;;
62673;SDS011;62269;47.594;17.638;2023-06-19T02:58:44;10.85;;;9.75;;
62673;SDS011;62269;47.594;17.638;2023-06-19T02:59:41;11.12;;;10.02;;
62673;SDS011;62269;47.594;17.638;2023-06-19T03:00:38;10.63;;;9.55;;
62673;SDS011;62269;47.594;17.638;2023-06-19T03:01:35;10.60;;;9.60;;
62673;SDS011;62269;47.594;17.638;2023-06-19T03:02:32;10.52;;;9.50;;
62673;SDS011;62269;47.594;17.638;2023-06-19T03:03:29;10.95;;;9.45;;
62673;SDS011;62269;47.594;17.638;2023-06-19T03:04:27;11.10;;;10.00;;
62673;SDS011;62269;47.594;17.638;2023-06-19T03:05:25;10.30;;;9.20;;
62673;SDS011;62269;47.594;17.638;2023-06-19T03:06:23;11.02;;;9.93;;
62673;SDS011;62269;47.594;17.638;2023-06-19T03:07:22;12.20;;;9.77;;
62673;SDS011;62269;47.594;17.638;2023-06-19T03:08:19;12.13;;;10.30;;
62673;SDS011;62269;47.594;17.638;2023-06-19T03:09:16;10.98;;;9.88;;
62673;SDS011;62269;47.594;17.638;2023-06-19T03:10:13;10.50;;;9.48;;
62673;SDS011;62269;47.594;17.638;2023-06-19T03:11:10;11.23;;;10.02;;
62673;SDS011;62269;47.594;17.638;2023-06-19T03:12:08;10.82;;;9.30;;
62673;SDS011;62269;47.594;17.638;2023-06-19T03:13:05;15.90;;;10.43;;
62673;SDS011;62269;47.594;17.638;2023-06-19T03:14:02;10.38;;;9.27;;
62673;SDS011;62269;47.594;17.638;2023-06-19T03:15:03;10.20;;;9.20;;
62673;SDS011;62269;47.594;17.638;2023-06-19T03:16:01;10.50;;;9.40;;
62673;SDS011;62269;47.594;17.638;2023-06-19T03:16:58;11.18;;;9.85;;
62673;SDS011;62269;47.594;17.638;2023-06-19T03:17:55;10.32;;;9.27;;
62673;SDS011;62269;47.594;17.638;2023-06-19T03:18:52;11.45;;;10.10;;
62673;SDS011;62269;47.594;17.638;2023-06-19T03:19:49;10.18;;;9.18;;
62673;SDS011;62269;47.594;17.638;2023-06-19T03:20:46;10.35;;;9.35;;
62673;SDS011;62269;47.594;17.638;2023-06-19T03:21:43;10.23;;;9.02;;
62673;SDS011;62269;47.594;17.638;2023-06-19T03:22:40;11.15;;;9.90;;
62673;SDS011;62269;47.594;17.638;2023-06-19T03:23:38;10.48;;;9.02;;
62673;SDS011;62269;47.594;17.638;2023-06-19T03:24:35;10.93;;;9.38;;
62673;SDS011;62269;47.594;17.638;2023-06-19T03:25:32;10.63;;;9.63;;
62673;SDS011;62269;47.594;17.638;2023-06-19T03:26:31;11.25;;;9.25;;
62673;SDS011;62269;47.594;17.638;2023-06-19T03:27:28;11.25;;;9.10;;
62673;SDS011;62269;47.594;17.638;2023-06-19T03:28:26;10.95;;;9.38;;
62673;SDS011;62269;47.594;17.638;2023-06-19T03:29:23;11.23;;;9.73;;
62673;SDS011;62269;47.594;17.638;2023-06-19T03:30:20;10.18;;;9.15;;
62673;SDS011;62269;47.594;17.638;2023-06-19T03:31:19;10.15;;;8.70;;
62673;SDS011;62269;47.594;17.638;2023-06-19T03:32:16;10.02;;;9.02;;
62673;SDS011;62269;47.594;17.638;2023-06-19T03:33:13;9.55;;;8.35;;
62673;SDS011;62269;47.594;17.638;2023-06-19T03:34:10;11.07;;;9.52;;
62673;SDS011;62269;47.594;17.638;2023-06-19T03:35:07;11.00;;;9.45;;
62673;SDS011;62269;47.594;17.638;2023-06-19T03:36:04;9.93;;;8.93;;
62673;SDS011;62269;47.594;17.638;2023-06-19T03:37:02;10.18;;;9.05;;
62673;SDS011;62269;47.594;17.638;2023-06-19T03:37:59;9.77;;;8.80;;
62673;SDS011;62269;47.594;17.638;2023-06-19T03:38:56;12.85;;;9.93;;
62673;SDS011;62269;47.594;17.638;2023-06-19T03:39:53;10.52;;;9.43;;
62673;SDS011;62269;47.594;17.638;2023-06-19T03:40:50;10.55;;;9.45;;
62673;SDS011;62269;47.594;17.638;2023-06-19T03:41:47;9.85;;;8.88;;
62673;SDS011;62269;47.594;17.638;2023-06-19T03:42:44;9.68;;;8.65;;
62673;SDS011;62269;47.594;17.638;2023-06-19T03:43:41;9.55;;;8.40;;
62673;SDS011;62269;47.594;17.638;2023-06-19T03:44:38;10.50;;;9.30;;
62673;SDS011;62269;47.594;17.638;2023-06-19T03:45:35;10.63;;;9.32;;
62673;SDS011;62269;47.594;17.638;2023-06-19T03:46:32;10.05;;;9.05;;
62673;SDS011;62269;47.594;17.638;2023-06-19T03:47:29;9.68;;;8.77;;
62673;SDS011;62269;47.594;17.638;2023-06-19T03:48:26;9.48;;;8.52;;
62673;SDS011;62269;47.594;17.638;2023-06-19T03:49:24;9.80;;;8.52;;
62673;SDS011;62269;47.594;17.638;2023-06-19T03:50:21;10.60;;;9.55;;
62673;SDS011;62269;47.594;17.638;2023-06-19T03:51:22;10.18;;;9.18;;
62673;SDS011;62269;47.594;17.638;2023-06-19T03:52:19;11.45;;;9.27;;
62673;SDS011;62269;47.594;17.638;2023-06-19T03:53:16;10.77;;;9.20;;
62673;SDS011;62269;47.594;17.638;2023-06-19T03:54:13;13.13;;;9.73;;
62673;SDS011;62269;47.594;17.638;2023-06-19T03:55:10;11.32;;;9.35;;
62673;SDS011;62269;47.594;17.638;2023-06-19T03:56:07;9.05;;;8.02;;
62673;SDS011;62269;47.594;17.638;2023-06-19T03:57:04;9.70;;;8.32;;
62673;SDS011;62269;47.594;17.638;2023-06-19T03:58:02;9.45;;;8.45;;
62673;SDS011;62269;47.594;17.638;2023-06-19T03:58:59;9.50;;;8.50;;
62673;SDS011;62269;47.594;17.638;2023-06-19T03:59:56;10.55;;;9.00;;
62673;SDS011;62269;47.594;17.638;2023-06-19T04:00:53;8.95;;;8.05;;
62673;SDS011;62269;47.594;17.638;2023-06-19T04:01:50;10.25;;;8.57;;
62673;SDS011;62269;47.594;17.638;2023-06-19T04:02:47;9.43;;;8.45;;
62673;SDS011;62269;47.594;17.638;2023-06-19T04:03:45;8.95;;;8.05;;
62673;SDS011;62269;47.594;17.638;2023-06-19T04:04:42;10.13;;;8.02;;
62673;SDS011;62269;47.594;17.638;2023-06-19T04:05:39;11.30;;;7.85;;
62673;SDS011;62269;47.594;17.638;2023-06-19T04:06:38;10.82;;;7.80;;
62673;SDS011;62269;47.594;17.638;2023-06-19T04:07:35;10.02;;;7.60;;
62673;SDS011;62269;47.594;17.638;2023-06-19T04:08:33;8.38;;;7.40;;
62673;SDS011;62269;47.594;17.638;2023-06-19T04:09:30;12.40;;;8.20;;
62673;SDS011;62269;47.594;17.638;2023-06-19T04:10:27;10.82;;;7.97;;
62673;SDS011;62269;47.594;17.638;2023-06-19T04:11:24;9.02;;;7.60;;
62673;SDS011;62269;47.594;17.638;2023-06-19T04:12:21;12.27;;;8.00;;
62673;SDS011;62269;47.594;17.638;2023-06-19T04:13:18;9.65;;;7.10;;
62673;SDS011;62269;47.594;17.638;2023-06-19T04:14:15;9.32;;;8.13;;
62673;SDS011;62269;47.594;17.638;2023-06-19T04:15:12;10.20;;;7.30;;
62673;SDS011;62269;47.594;17.638;2023-06-19T04:16:09;9.70;;;7.25;;
62673;SDS011;62269;47.594;17.638;2023-06-19T04:17:06;11.00;;;7.28;;
62673;SDS011;62269;47.594;17.638;2023-06-19T04:18:03;10.98;;;7.50;;
62673;SDS011;62269;47.594;17.638;2023-06-19T04:19:00;9.68;;;7.40;;
62673;SDS011;62269;47.594;17.638;2023-06-19T04:19:57;8.38;;;7.53;;
62673;SDS011;62269;47.594;17.638;2023-06-19T04:20:54;9.10;;;7.20;;
62673;SDS011;62269;47.594;17.638;2023-06-19T04:21:51;8.20;;;7.12;;
62673;SDS011;62269;47.594;17.638;2023-06-19T04:22:48;7.75;;;6.95;;
62673;SDS011;62269;47.594;17.638;2023-06-19T04:23:45;8.00;;;7.18;;
62673;SDS011;62269;47.594;17.638;2023-06-19T04:24:42;8.55;;;7.32;;
62673;SDS011;62269;47.594;17.638;2023-06-19T04:25:39;7.82;;;6.80;;
62673;SDS011;62269;47.594;17.638;2023-06-19T04:26:36;9.65;;;7.35;;
62673;SDS011;62269;47.594;17.638;2023-06-19T04:27:33;10.52;;;7.18;;
62673;SDS011;62269;47.594;17.638;2023-06-19T04:28:31;7.80;;;7.00;;
62673;SDS011;62269;47.594;17.638;2023-06-19T04:29:28;8.57;;;6.90;;
62673;SDS011;62269;47.594;17.638;2023-06-19T04:30:28;7.20;;;6.50;;
62673;SDS011;62269;47.594;17.638;2023-06-19T04:31:25;7.37;;;6.68;;
62673;SDS011;62269;47.594;17.638;2023-06-19T04:32:23;8.40;;;6.68;;
62673;SDS011;62269;47.594;17.638;2023-06-19T04:33:20;8.35;;;6.80;;
62673;SDS011;62269;47.594;17.638;2023-06-19T04:34:18;9.88;;;7.15;;
62673;SDS011;62269;47.594;17.638;2023-06-19T04:35:17;7.30;;;6.60;;
62673;SDS011;62269;47.594;17.638;2023-06-19T04:36:15;8.80;;;7.90;;
62673;SDS011;62269;47.594;17.638;2023-06-19T04:37:12;9.73;;;7.15;;
62673;SDS011;62269;47.594;17.638;2023-06-19T04:38:09;7.35;;;6.65;;
62673;SDS011;62269;47.594;17.638;2023-06-19T04:39:06;7.35;;;6.32;;
62673;SDS011;62269;47.594;17.638;2023-06-19T04:40:03;8.20;;;6.60;;
62673;SDS011;62269;47.594;17.638;2023-06-19T04:41:01;8.15;;;6.97;;
62673;SDS011;62269;47.594;17.638;2023-06-19T04:41:58;8.27;;;7.25;;
62673;SDS011;62269;47.594;17.638;2023-06-19T04:42:55;8.68;;;7.30;;
62673;SDS011;62269;47.594;17.638;2023-06-19T04:43:52;8.25;;;7.45;;
62673;SDS011;62269;47.594;17.638;2023-06-19T04:44:49;9.80;;;7.43;;
62673;SDS011;62269;47.594;17.638;2023-06-19T04:45:46;9.57;;;7.10;;
62673;SDS011;62269;47.594;17.638;2023-06-19T04:46:43;8.85;;;7.10;;
62673;SDS011;62269;47.594;17.638;2023-06-19T04:47:43;7.53;;;6.72;;
62673;SDS011;62269;47.594;17.638;2023-06-19T04:48:49;7.40;;;6.55;;
62673;SDS011;62269;47.594;17.638;2023-06-19T04:49:49;7.12;;;6.43;;
62673;SDS011;62269;47.594;17.638;2023-06-19T04:50:46;8.73;;;6.72;;
62673;SDS011;62269;47.594;17.638;2023-06-19T04:51:43;12.02;;;7.00;;
62673;SDS011;62269;47.594;17.638;2023-06-19T04:52:40;16.40;;;7.68;;
62673;SDS011;62269;47.594;17.638;2023-06-19T04:53:37;11.38;;;7.05;;
62673;SDS011;62269;47.594;17.638;2023-06-19T04:54:34;11.75;;;7.05;;
62673;SDS011;62269;47.594;17.638;2023-06-19T04:55:31;7.45;;;6.65;;
62673;SDS011;62269;47.594;17.638;2023-06-19T04:56:28;8.73;;;6.70;;
62673;SDS011;62269;47.594;17.638;2023-06-19T04:57:25;10.00;;;6.95;;
62673;SDS011;62269;47.594;17.638;2023-06-19T04:58:22;9.18;;;6.97;;
62673;SDS011;62269;47.594;17.638;2023-06-19T04:59:19;8.27;;;6.60;;
62673;SDS011;62269;47.594;17.638;2023-06-19T05:00:17;9.27;;;6.40;;
62673;SDS011;62269;47.594;17.638;2023-06-19T05:01:16;8.75;;;6.97;;
62673;SDS011;62269;47.594;17.638;2023-06-19T05:02:13;8.38;;;7.18;;
62673;SDS011;62269;47.594;17.638;2023-06-19T05:03:10;8.40;;;6.87;;
62673;SDS011;62269;47.594;17.638;2023-06-19T05:04:10;8.95;;;6.62;;
62673;SDS011;62269;47.594;17.638;2023-06-19T05:05:10;8.15;;;6.60;;
62673;SDS011;62269;47.594;17.638;2023-06-19T05:06:07;8.45;;;6.97;;
62673;SDS011;62269;47.594;17.638;2023-06-19T05:07:05;11.35;;;6.90;;
62673;SDS011;62269;47.594;17.638;2023-06-19T05:08:02;7.78;;;6.93;;
62673;SDS011;62269;47.594;17.638;2023-06-19T05:08:59;9.55;;;7.30;;
62673;SDS011;62269;47.594;17.638;2023-06-19T05:09:57;8.60;;;7.18;;
62673;SDS011;62269;47.594;17.638;2023-06-19T05:10:54;8.23;;;7.03;;
62673;SDS011;62269;47.594;17.638;2023-06-19T05:11:51;7.87;;;7.07;;
62673;SDS011;62269;47.594;17.638;2023-06-19T05:12:48;7.32;;;6.60;;
62673;SDS011;62269;47.594;17.638;2023-06-19T05:13:45;11.32;;;6.97;;
62673;SDS011;62269;47.594;17.638;2023-06-19T05:14:42;10.40;;;7.18;;
62673;SDS011;62269;47.594;17.638;2023-06-19T05:15:39;10.65;;;7.22;;
62673;SDS011;62269;47.594;17.638;2023-06-19T05:16:36;7.75;;;7.00;;
62673;SDS011;62269;47.594;17.638;2023-06-19T05:17:33;10.13;;;6.75;;
62673;SDS011;62269;47.594;17.638;2023-06-19T05:18:31;12.20;;;7.10;;
62673;SDS011;62269;47.594;17.638;2023-06-19T05:19:28;8.05;;;6.55;;
62673;SDS011;62269;47.594;17.638;2023-06-19T05:20:25;8.75;;;7.25;;
62673;SDS011;62269;47.594;17.638;2023-06-19T05:21:22;9.40;;;6.87;;
62673;SDS011;62269;47.594;17.638;2023-06-19T05:22:19;10.57;;;6.70;;
62673;SDS011;62269;47.594;17.638;2023-06-19T05:23:18;9.95;;;7.68;;
62673;SDS011;62269;47.594;17.638;2023-06-19T05:24:15;7.95;;;7.05;;
62673;SDS011;62269;47.594;17.638;2023-06-19T05:25:12;10.48;;;7.60;;
62673;SDS011;62269;47.594;17.638;2023-06-19T05:26:09;10.32;;;7.65;;
62673;SDS011;62269;47.594;17.638;2023-06-19T05:27:06;9.63;;;8.27;;
62673;SDS011;62269;47.594;17.638;2023-06-19T05:28:03;11.20;;;7.93;;
62673;SDS011;62269;47.594;17.638;2023-06-19T05:29:01;10.98;;;8.32;;
62673;SDS011;62269;47.594;17.638;2023-06-19T05:29:58;8.75;;;7.55;;
62673;SDS011;62269;47.594;17.638;2023-06-19T05:30:55;9.50;;;7.97;;
62673;SDS011;62269;47.594;17.638;2023-06-19T05:31:52;10.68;;;8.05;;
62673;SDS011;62269;47.594;17.638;2023-06-19T05:32:49;13.95;;;7.57;;
62673;SDS011;62269;47.594;17.638;2023-06-19T05:33:46;11.15;;;7.90;;
62673;SDS011;62269;47.594;17.638;2023-06-19T05:34:43;11.70;;;8.05;;
62673;SDS011;62269;47.594;17.638;2023-06-19T05:35:41;9.18;;;8.13;;
62673;SDS011;62269;47.594;17.638;2023-06-19T05:36:47;8.57;;;7.55;;
62673;SDS011;62269;47.594;17.638;2023-06-19T05:37:45;9.18;;;7.32;;
62673;SDS011;62269;47.594;17.638;2023-06-19T05:38:42;11.48;;;8.15;;
62673;SDS011;62269;47.594;17.638;2023-06-19T05:39:39;9.55;;;7.57;;